createdAt,value
2019-01-02T00:00:53.107Z,0
2019-01-02T00:01:54.107Z,0
2019-01-02T00:02:53.075Z,0
2019-01-02T00:03:52.806Z,0
2019-01-02T00:04:53.954Z,0
2019-01-02T00:05:53.014Z,0
2019-01-02T00:06:52.989Z,0
2019-01-02T00:07:53.129Z,0
2019-01-02T00:08:52.962Z,0
2019-01-02T00:09:53.969Z,0
2019-01-02T00:10:52.917Z,0
2019-01-02T00:11:52.647Z,0
2019-01-02T00:12:53.595Z,0
2019-01-02T00:13:52.866Z,0
2019-01-02T00:14:52.584Z,0
2019-01-02T00:15:52.916Z,0
2019-01-02T00:16:52.794Z,0
2019-01-02T00:17:53.451Z,0
2019-01-02T00:18:52.755Z,0
2019-01-02T00:19:52.739Z,0
2019-01-02T00:20:53.570Z,0
2019-01-02T00:21:52.715Z,0
2019-01-02T00:22:52.454Z,0
2019-01-02T00:23:52.750Z,0
2019-01-02T00:24:52.631Z,0
2019-01-02T00:25:53.106Z,0
2019-01-02T00:26:52.601Z,0
2019-01-02T00:27:52.345Z,0
2019-01-02T00:28:53.250Z,0
2019-01-02T00:29:52.548Z,0
2019-01-02T00:30:52.536Z,0
2019-01-02T00:31:52.936Z,0
2019-01-02T00:32:52.641Z,0
2019-01-02T00:33:53.136Z,0
2019-01-02T00:34:52.449Z,0
2019-01-02T00:35:52.179Z,0
2019-01-02T00:36:53.128Z,0
2019-01-02T00:37:52.388Z,0
2019-01-02T00:38:52.714Z,0
2019-01-02T00:39:52.364Z,0
2019-01-02T00:40:52.338Z,0
2019-01-02T00:41:53.191Z,0
2019-01-02T00:42:52.334Z,0
2019-01-02T00:43:52.513Z,0
2019-01-02T00:44:52.011Z,0
2019-01-02T00:45:52.244Z,0
2019-01-02T00:46:52.856Z,0
2019-01-02T00:47:52.204Z,0
2019-01-02T00:48:52.180Z,0
2019-01-02T00:49:52.809Z,0
2019-01-02T00:50:52.150Z,0
2019-01-02T00:51:53.058Z,0
2019-01-02T00:52:52.099Z,0
2019-01-02T00:53:51.589Z,0
2019-01-02T00:54:53.088Z,0
2019-01-02T00:55:51.811Z,0
2019-01-02T00:56:52.690Z,0
2019-01-02T00:57:52.012Z,0
2019-01-02T00:58:51.989Z,0
2019-01-02T00:59:52.841Z,0
2019-01-02T01:00:52.008Z,0
2019-01-02T01:01:53.058Z,0
2019-01-02T01:02:51.843Z,0
2019-01-02T01:03:51.657Z,0
2019-01-02T01:04:52.608Z,0
2019-01-02T01:05:51.856Z,0
2019-01-02T01:06:52.789Z,0
2019-01-02T01:07:51.828Z,0
2019-01-02T01:08:51.809Z,0
2019-01-02T01:09:52.384Z,0
2019-01-02T01:10:51.766Z,0
2019-01-02T01:11:52.282Z,0
2019-01-02T01:12:51.231Z,0
2019-01-02T01:13:51.698Z,0
2019-01-02T01:14:52.454Z,0
2019-01-02T01:15:51.712Z,0
2019-01-02T01:16:52.418Z,0
2019-01-02T01:17:51.620Z,0
2019-01-02T01:18:51.603Z,0
2019-01-02T01:19:52.143Z,0
2019-01-02T01:20:51.583Z,0
2019-01-02T01:21:51.911Z,0
2019-01-02T01:22:51.527Z,0
2019-01-02T01:23:51.517Z,0
2019-01-02T01:24:52.154Z,0
2019-01-02T01:25:51.481Z,0
2019-01-02T01:26:51.198Z,0
2019-01-02T01:27:52.154Z,0
2019-01-02T01:28:51.422Z,0
2019-01-02T01:29:51.387Z,0
2019-01-02T01:30:52.195Z,0
2019-01-02T01:31:51.351Z,0
2019-01-02T01:32:51.096Z,0
2019-01-02T01:33:52.264Z,0
2019-01-02T01:34:51.046Z,0
2019-01-02T01:35:51.273Z,0
2019-01-02T01:36:52.195Z,0
2019-01-02T01:37:51.238Z,0
2019-01-02T01:38:51.221Z,0
2019-01-02T01:39:51.926Z,0
2019-01-02T01:40:50.927Z,0
2019-01-02T01:41:50.920Z,0
2019-01-02T01:42:51.628Z,0
2019-01-02T01:43:51.124Z,0
2019-01-02T01:44:51.840Z,0
2019-01-02T01:45:51.090Z,0
2019-01-02T01:46:51.055Z,0
2019-01-02T01:47:52.024Z,0
2019-01-02T01:48:51.024Z,0
2019-01-02T01:49:50.759Z,0
2019-01-02T01:50:51.974Z,0
2019-01-02T01:51:50.968Z,0
2019-01-02T01:52:50.696Z,0
2019-01-02T01:53:51.511Z,0
2019-01-02T01:54:50.907Z,0
2019-01-02T01:55:50.636Z,0
2019-01-02T01:56:51.802Z,0
2019-01-02T01:57:50.849Z,0
2019-01-02T01:58:50.584Z,0
2019-01-02T01:59:51.541Z,0
2019-01-02T02:00:50.538Z,0
2019-01-02T02:01:50.522Z,0
2019-01-02T02:02:51.071Z,0
2019-01-02T02:03:50.789Z,0
2019-01-02T02:04:50.758Z,0
2019-01-02T02:05:50.695Z,0
2019-01-02T02:06:50.673Z,0
2019-01-02T02:07:51.533Z,0
2019-01-02T02:08:50.632Z,0
2019-01-02T02:09:50.367Z,0
2019-01-02T02:10:51.519Z,0
2019-01-02T02:11:50.321Z,0
2019-01-02T02:12:50.582Z,0
2019-01-02T02:13:51.491Z,0
2019-01-02T02:14:50.524Z,0
2019-01-02T02:15:50.505Z,0
2019-01-02T02:16:51.134Z,0
2019-01-02T02:17:50.207Z,0
2019-01-02T02:18:50.434Z,0
2019-01-02T02:19:51.328Z,0
2019-01-02T02:20:50.396Z,0
2019-01-02T02:21:50.718Z,0
2019-01-02T02:22:50.367Z,0
2019-01-02T02:23:50.095Z,0
2019-01-02T02:24:51.178Z,0
2019-01-02T02:25:50.066Z,0
2019-01-02T02:26:49.792Z,0
2019-01-02T02:27:51.321Z,0
2019-01-02T02:28:50.251Z,0
2019-01-02T02:29:50.230Z,0
2019-01-02T02:30:50.965Z,0
2019-01-02T02:31:50.194Z,0
2019-01-02T02:32:51.049Z,0
2019-01-02T02:33:50.914Z,0
2019-01-02T02:34:50.128Z,0
2019-01-02T02:35:51.143Z,0
2019-01-02T02:36:50.849Z,0
2019-01-02T02:37:50.079Z,0
2019-01-02T02:38:50.889Z,0
2019-01-02T02:39:50.539Z,0
2019-01-02T02:40:50.012Z,0
2019-01-02T02:41:50.435Z,0
2019-01-02T02:42:50.989Z,0
2019-01-02T02:43:49.953Z,0
2019-01-02T02:44:50.010Z,0
2019-01-02T02:45:50.812Z,0
2019-01-02T02:46:49.909Z,0
2019-01-02T02:47:50.797Z,0
2019-01-02T02:48:50.629Z,0
2019-01-02T02:49:49.594Z,0
2019-01-02T02:50:50.378Z,0
2019-01-02T02:51:50.814Z,0
2019-01-02T02:52:49.793Z,0
2019-01-02T02:53:50.367Z,0
2019-01-02T02:54:49.743Z,0
2019-01-02T02:55:50.364Z,0
2019-01-02T02:56:50.904Z,0
2019-01-02T02:57:49.737Z,0
2019-01-02T02:58:50.404Z,0
2019-01-02T02:59:49.643Z,0
2019-01-02T03:00:50.553Z,0
2019-01-02T03:01:50.617Z,0
2019-01-02T03:02:49.339Z,0
2019-01-02T03:03:50.158Z,0
2019-01-02T03:04:50.547Z,0
2019-01-02T03:05:49.535Z,0
2019-01-02T03:06:55.396Z,0
2019-01-02T03:07:50.596Z,0
2019-01-02T03:08:49.234Z,0
2019-01-02T03:09:50.133Z,0
2019-01-02T03:10:50.397Z,0
2019-01-02T03:11:49.161Z,0
2019-01-02T03:12:50.218Z,0
2019-01-02T03:13:50.130Z,0
2019-01-02T03:14:49.351Z,0
2019-01-02T03:15:50.047Z,0
2019-01-02T03:16:51.265Z,0
2019-01-02T03:17:49.293Z,0
2019-01-02T03:18:49.601Z,0
2019-01-02T03:19:50.251Z,0
2019-01-02T03:20:48.989Z,0
2019-01-02T03:21:49.990Z,0
2019-01-02T03:22:49.803Z,0
2019-01-02T03:23:49.188Z,0
2019-01-02T03:24:49.927Z,0
2019-01-02T03:25:50.011Z,0
2019-01-02T03:26:49.122Z,0
2019-01-02T03:27:50.142Z,0
2019-01-02T03:28:50.015Z,0
2019-01-02T03:29:49.053Z,0
2019-01-02T03:30:49.789Z,0
2019-01-02T03:31:49.616Z,0
2019-01-02T03:32:50.021Z,0
2019-01-02T03:33:48.972Z,0
2019-01-02T03:34:48.942Z,0
2019-01-02T03:35:48.927Z,0
2019-01-02T03:36:48.414Z,0
2019-01-02T03:37:48.887Z,0
2019-01-02T03:38:48.879Z,0
2019-01-02T03:39:48.855Z,0
2019-01-02T03:40:48.829Z,0
2019-01-02T03:41:48.574Z,0
2019-01-02T03:42:48.791Z,0
2019-01-02T03:43:48.770Z,0
2019-01-02T03:44:49.307Z,0
2019-01-02T03:45:48.739Z,0
2019-01-02T03:46:48.468Z,0
2019-01-02T03:47:48.694Z,0
2019-01-02T03:48:48.677Z,0
2019-01-02T03:49:48.659Z,0
2019-01-02T03:50:48.644Z,0
2019-01-02T03:51:48.618Z,0
2019-01-02T03:52:48.604Z,0
2019-01-02T03:53:48.577Z,0
2019-01-02T03:54:48.567Z,0
2019-01-02T03:55:48.559Z,0
2019-01-02T03:56:48.548Z,0
2019-01-02T03:57:48.256Z,0
2019-01-02T03:58:48.485Z,0
2019-01-02T03:59:48.459Z,0
2019-01-02T04:00:48.441Z,0
2019-01-02T04:01:48.179Z,0
2019-01-02T04:02:48.445Z,0
2019-01-02T04:03:48.384Z,0
2019-01-02T04:04:48.119Z,0
2019-01-02T04:05:48.351Z,0
2019-01-02T04:06:47.845Z,0
2019-01-02T04:07:48.309Z,0
2019-01-02T04:08:48.293Z,0
2019-01-02T04:09:48.282Z,0
2019-01-02T04:10:48.249Z,0
2019-01-02T04:11:48.228Z,0
2019-01-02T04:12:47.962Z,0
2019-01-02T04:13:48.201Z,0
2019-01-02T04:14:48.183Z,0
2019-01-02T04:15:47.910Z,0
2019-01-02T04:16:48.136Z,0
2019-01-02T04:17:48.127Z,0
2019-01-02T04:18:48.107Z,0
2019-01-02T04:19:48.077Z,0
2019-01-02T04:20:47.813Z,0
2019-01-02T04:21:47.794Z,0
2019-01-02T04:22:48.020Z,0
2019-01-02T04:23:48.007Z,0
2019-01-02T04:24:47.987Z,0
2019-01-02T04:25:47.969Z,0
2019-01-02T04:26:47.968Z,0
2019-01-02T04:27:47.676Z,0
2019-01-02T04:28:47.659Z,0
2019-01-02T04:29:47.881Z,0
2019-01-02T04:30:47.863Z,0
2019-01-02T04:31:47.841Z,0
2019-01-02T04:32:47.825Z,0
2019-01-02T04:33:47.561Z,0
2019-01-02T04:34:47.542Z,0
2019-01-02T04:35:47.773Z,0
2019-01-02T04:36:47.756Z,0
2019-01-02T04:37:47.728Z,0
2019-01-02T04:38:47.716Z,0
2019-01-02T04:39:47.443Z,0
2019-01-02T04:40:47.675Z,0
2019-01-02T04:41:47.666Z,0
2019-01-02T04:42:47.402Z,0
2019-01-02T04:43:47.618Z,0
2019-01-02T04:44:47.354Z,0
2019-01-02T04:45:47.321Z,0
2019-01-02T04:46:47.560Z,0
2019-01-02T04:47:47.541Z,0
2019-01-02T04:48:47.273Z,0
2019-01-02T04:49:47.262Z,0
2019-01-02T04:50:47.290Z,0
2019-01-02T04:51:47.458Z,0
2019-01-02T04:52:47.444Z,0
2019-01-02T04:53:47.434Z,0
2019-01-02T04:54:47.403Z,0
2019-01-02T04:55:47.139Z,0
2019-01-02T04:56:47.375Z,0
2019-01-02T04:57:47.352Z,0
2019-01-02T04:58:47.324Z,0
2019-01-02T04:59:47.317Z,0
2019-01-02T05:00:47.040Z,0
2019-01-02T05:01:47.267Z,0
2019-01-02T05:02:46.752Z,0
2019-01-02T05:03:47.235Z,0
2019-01-02T05:04:47.227Z,0
2019-01-02T05:05:47.191Z,0
2019-01-02T05:06:47.169Z,0
2019-01-02T05:07:47.168Z,0
2019-01-02T05:08:47.135Z,0
2019-01-02T05:09:47.111Z,0
2019-01-02T05:10:47.142Z,0
2019-01-02T05:11:46.583Z,0
2019-01-02T05:12:47.057Z,0
2019-01-02T05:13:47.038Z,0
2019-01-02T05:14:47.015Z,0
2019-01-02T05:15:47.049Z,0
2019-01-02T05:16:46.979Z,0
2019-01-02T05:17:46.963Z,0
2019-01-02T05:18:46.943Z,0
2019-01-02T05:19:46.920Z,0
2019-01-02T05:20:46.898Z,0
2019-01-02T05:21:46.876Z,0
2019-01-02T05:22:46.909Z,0
2019-01-02T05:23:46.850Z,0
2019-01-02T05:24:46.829Z,0
2019-01-02T05:25:46.569Z,0
2019-01-02T05:26:46.788Z,0
2019-01-02T05:27:46.773Z,0
2019-01-02T05:28:46.752Z,0
2019-01-02T05:29:46.728Z,0
2019-01-02T05:30:46.710Z,0
2019-01-02T05:31:46.697Z,0
2019-01-02T05:32:46.680Z,0
2019-01-02T05:33:46.646Z,0
2019-01-02T05:34:46.632Z,0
2019-01-02T05:35:46.610Z,0
2019-01-02T05:36:46.590Z,0
2019-01-02T05:37:46.332Z,0
2019-01-02T05:38:46.308Z,0
2019-01-02T05:39:46.539Z,0
2019-01-02T05:40:46.518Z,0
2019-01-02T05:41:46.507Z,0
2019-01-02T05:42:46.476Z,0
2019-01-02T05:43:46.456Z,0
2019-01-02T05:44:46.435Z,0
2019-01-02T05:45:46.415Z,0
2019-01-02T05:46:46.415Z,0
2019-01-02T05:47:46.137Z,0
2019-01-02T05:48:46.364Z,0
2019-01-02T05:49:46.096Z,0
2019-01-02T05:50:46.321Z,0
2019-01-02T05:51:46.053Z,0
2019-01-02T05:52:46.043Z,0
2019-01-02T05:53:46.268Z,0
2019-01-02T05:54:46.251Z,0
2019-01-02T05:55:46.232Z,0
2019-01-02T05:56:45.974Z,0
2019-01-02T05:57:46.191Z,0
2019-01-02T05:58:45.928Z,0
2019-01-02T05:59:46.154Z,0
2019-01-02T06:00:47.071Z,0
2019-01-02T06:01:46.108Z,0
2019-01-02T06:02:46.101Z,0
2019-01-02T06:03:45.822Z,0
2019-01-02T06:04:45.809Z,0
2019-01-02T06:05:46.052Z,0
2019-01-02T06:06:46.018Z,0
2019-01-02T06:07:45.994Z,0
2019-01-02T06:08:45.980Z,0
2019-01-02T06:09:45.958Z,0
2019-01-02T06:10:45.939Z,0
2019-01-02T06:11:45.918Z,0
2019-01-02T06:12:45.899Z,0
2019-01-02T06:13:45.882Z,0
2019-01-02T06:14:45.859Z,0
2019-01-02T06:15:45.593Z,0
2019-01-02T06:16:45.333Z,0
2019-01-02T06:17:45.815Z,0
2019-01-02T06:18:45.783Z,0
2019-01-02T06:19:45.762Z,0
2019-01-02T06:20:45.504Z,0
2019-01-02T06:21:45.728Z,0
2019-01-02T06:22:45.466Z,0
2019-01-02T06:23:45.690Z,0
2019-01-02T06:24:45.675Z,0
2019-01-02T06:25:45.651Z,0
2019-01-02T06:26:45.633Z,0
2019-01-02T06:27:45.359Z,0
2019-01-02T06:28:45.594Z,0
2019-01-02T06:29:45.569Z,0
2019-01-02T06:30:45.554Z,0
2019-01-02T06:31:45.534Z,0
2019-01-02T06:32:45.521Z,0
2019-01-02T06:33:45.246Z,0
2019-01-02T06:34:45.483Z,0
2019-01-02T06:35:45.465Z,0
2019-01-02T06:36:45.202Z,0
2019-01-02T06:37:45.172Z,0
2019-01-02T06:38:45.155Z,0
2019-01-02T06:39:45.381Z,0
2019-01-02T06:40:45.359Z,0
2019-01-02T06:41:45.094Z,0
2019-01-02T06:42:45.083Z,4
2019-01-02T06:43:45.306Z,0
2019-01-02T06:44:45.278Z,0
2019-01-02T06:45:45.256Z,4
2019-01-02T06:46:45.250Z,0
2019-01-02T06:47:45.226Z,4
2019-01-02T06:48:45.211Z,4
2019-01-02T06:49:45.184Z,4
2019-01-02T06:50:44.915Z,4
2019-01-02T06:51:45.144Z,8
2019-01-02T06:52:45.135Z,8
2019-01-02T06:53:45.106Z,8
2019-01-02T06:54:45.087Z,12
2019-01-02T06:55:44.820Z,16
2019-01-02T06:56:45.049Z,12
2019-01-02T06:57:45.035Z,16
2019-01-02T06:58:45.006Z,16
2019-01-02T06:59:44.994Z,20
2019-01-02T07:00:44.969Z,20
2019-01-02T07:01:44.704Z,24
2019-01-02T07:02:44.932Z,20
2019-01-02T07:03:44.910Z,28
2019-01-02T07:04:44.890Z,32
2019-01-02T07:05:44.882Z,32
2019-01-02T07:06:44.852Z,40
2019-01-02T07:07:44.835Z,36
2019-01-02T07:08:44.822Z,40
2019-01-02T07:09:44.792Z,44
2019-01-02T07:10:44.546Z,44
2019-01-02T07:11:44.863Z,52
2019-01-02T07:12:44.787Z,64
2019-01-02T07:13:44.468Z,72
2019-01-02T07:14:44.452Z,92
2019-01-02T07:15:44.679Z,100
2019-01-02T07:16:44.699Z,104
2019-01-02T07:17:44.637Z,120
2019-01-02T07:18:44.376Z,124
2019-01-02T07:19:44.604Z,120
2019-01-02T07:20:44.581Z,128
2019-01-02T07:21:44.557Z,124
2019-01-02T07:22:44.550Z,140
2019-01-02T07:23:44.534Z,156
2019-01-02T07:24:44.509Z,176
2019-01-02T07:25:44.481Z,196
2019-01-02T07:26:44.470Z,216
2019-01-02T07:27:44.450Z,228
2019-01-02T07:28:44.428Z,232
2019-01-02T07:29:44.161Z,224
2019-01-02T07:30:44.387Z,232
2019-01-02T07:31:44.620Z,228
2019-01-02T07:32:44.351Z,228
2019-01-02T07:33:44.343Z,212
2019-01-02T07:34:44.315Z,208
2019-01-02T07:35:44.295Z,212
2019-01-02T07:36:44.273Z,220
2019-01-02T07:37:44.262Z,216
2019-01-02T07:38:44.437Z,212
2019-01-02T07:39:44.251Z,208
2019-01-02T07:40:43.944Z,220
2019-01-02T07:41:44.185Z,216
2019-01-02T07:42:44.158Z,228
2019-01-02T07:43:44.141Z,240
2019-01-02T07:44:43.870Z,228
2019-01-02T07:45:43.857Z,232
2019-01-02T07:46:44.426Z,276
2019-01-02T07:47:44.108Z,240
2019-01-02T07:48:44.074Z,264
2019-01-02T07:49:43.522Z,240
2019-01-02T07:50:44.001Z,244
2019-01-02T07:51:44.033Z,292
2019-01-02T07:52:43.721Z,360
2019-01-02T07:53:43.981Z,372
2019-01-02T07:54:43.723Z,356
2019-01-02T07:55:43.916Z,372
2019-01-02T07:56:43.655Z,412
2019-01-02T07:57:43.369Z,384
2019-01-02T07:58:43.846Z,404
2019-01-02T07:59:43.841Z,440
2019-01-02T08:00:43.801Z,528
2019-01-02T08:01:43.544Z,516
2019-01-02T08:02:43.771Z,420
2019-01-02T08:03:43.748Z,456
2019-01-02T08:04:43.730Z,460
2019-01-02T08:05:43.707Z,468
2019-01-02T08:06:43.685Z,548
2019-01-02T08:07:43.671Z,640
2019-01-02T08:08:43.656Z,640
2019-01-02T08:09:43.650Z,604
2019-01-02T08:10:43.623Z,548
2019-01-02T08:11:43.587Z,512
2019-01-02T08:12:43.576Z,448
2019-01-02T08:13:43.561Z,432
2019-01-02T08:14:43.538Z,420
2019-01-02T08:15:43.528Z,508
2019-01-02T08:16:43.499Z,496
2019-01-02T08:17:43.482Z,544
2019-01-02T08:18:43.204Z,672
2019-01-02T08:19:43.439Z,680
2019-01-02T08:20:43.170Z,576
2019-01-02T08:21:43.397Z,552
2019-01-02T08:22:43.379Z,600
2019-01-02T08:23:43.359Z,552
2019-01-02T08:24:43.347Z,604
2019-01-02T08:25:43.322Z,704
2019-01-02T08:26:43.303Z,784
2019-01-02T08:27:43.278Z,748
2019-01-02T08:28:43.264Z,836
2019-01-02T08:29:43.247Z,772
2019-01-02T08:30:43.223Z,804
2019-01-02T08:31:43.201Z,784
2019-01-02T08:32:43.239Z,792
2019-01-02T08:33:42.919Z,824
2019-01-02T08:34:43.147Z,748
2019-01-02T08:35:44.315Z,620
2019-01-02T08:36:43.117Z,652
2019-01-02T08:37:43.091Z,788
2019-01-02T08:38:43.074Z,876
2019-01-02T08:39:42.798Z,800
2019-01-02T08:40:43.031Z,528
2019-01-02T08:41:43.017Z,540
2019-01-02T08:42:43.002Z,728
2019-01-02T08:43:42.980Z,812
2019-01-02T08:44:42.964Z,840
2019-01-02T08:45:42.973Z,924
2019-01-02T08:46:42.915Z,1196
2019-01-02T08:47:42.648Z,1332
2019-01-02T08:48:42.873Z,1396
2019-01-02T08:49:42.855Z,1444
2019-01-02T08:50:42.835Z,1068
2019-01-02T08:51:42.819Z,684
2019-01-02T08:52:42.561Z,624
2019-01-02T08:53:42.783Z,820
2019-01-02T08:54:42.752Z,916
2019-01-02T08:55:42.737Z,816
2019-01-02T08:56:42.471Z,688
2019-01-02T08:57:42.700Z,640
2019-01-02T08:58:42.684Z,828
2019-01-02T08:59:42.664Z,1036
2019-01-02T09:00:42.397Z,1452
2019-01-02T09:01:42.619Z,1804
2019-01-02T09:02:42.607Z,1756
2019-01-02T09:03:42.582Z,1356
2019-01-02T09:04:42.565Z,1156
2019-01-02T09:05:42.296Z,1496
2019-01-02T09:06:42.291Z,1928
2019-01-02T09:07:42.507Z,1232
2019-01-02T09:08:42.498Z,868
2019-01-02T09:09:42.474Z,1044
2019-01-02T09:10:41.957Z,1220
2019-01-02T09:11:42.430Z,1120
2019-01-02T09:12:42.407Z,1152
2019-01-02T09:13:41.893Z,1204
2019-01-02T09:14:42.371Z,1076
2019-01-02T09:15:42.105Z,860
2019-01-02T09:16:42.088Z,972
2019-01-02T09:17:42.068Z,1116
2019-01-02T09:18:42.314Z,1464
2019-01-02T09:19:42.028Z,1628
2019-01-02T09:20:42.256Z,1308
2019-01-02T09:21:42.237Z,1204
2019-01-02T09:22:41.962Z,1012
2019-01-02T09:23:42.196Z,1048
2019-01-02T09:24:41.929Z,1172
2019-01-02T09:25:41.907Z,1252
2019-01-02T09:26:42.136Z,1720
2019-01-02T09:27:42.125Z,2060
2019-01-02T09:28:42.099Z,1648
2019-01-02T09:29:43.443Z,1616
2019-01-02T09:30:42.059Z,1360
2019-01-02T09:31:41.815Z,1480
2019-01-02T09:32:42.037Z,1196
2019-01-02T09:33:42.003Z,1404
2019-01-02T09:34:41.764Z,1652
2019-01-02T09:35:41.745Z,1600
2019-01-02T09:36:41.951Z,1860
2019-01-02T09:37:41.927Z,2256
2019-01-02T09:38:41.919Z,1720
2019-01-02T09:39:41.885Z,2668
2019-01-02T09:40:42.221Z,2724
2019-01-02T09:41:41.859Z,2108
2019-01-02T09:42:41.838Z,1728
2019-01-02T09:43:41.807Z,1884
2019-01-02T09:44:41.788Z,1940
2019-01-02T09:45:41.529Z,1980
2019-01-02T09:46:41.837Z,1964
2019-01-02T09:47:41.793Z,1808
2019-01-02T09:48:41.711Z,2400
2019-01-02T09:49:41.700Z,1860
2019-01-02T09:50:41.683Z,1728
2019-01-02T09:51:41.653Z,1416
2019-01-02T09:52:41.647Z,1188
2019-01-02T09:53:41.619Z,1416
2019-01-02T09:54:41.362Z,2124
2019-01-02T09:55:41.336Z,2044
2019-01-02T09:56:41.564Z,2064
2019-01-02T09:57:41.546Z,1948
2019-01-02T09:58:41.519Z,1756
2019-01-02T09:59:41.008Z,1772
2019-01-02T10:00:41.237Z,1692
2019-01-02T10:01:41.218Z,1508
2019-01-02T10:02:41.448Z,1420
2019-01-02T10:03:41.427Z,1640
2019-01-02T10:04:41.410Z,1388
2019-01-02T10:05:41.390Z,1356
2019-01-02T10:06:41.378Z,1760
2019-01-02T10:07:41.349Z,2224
2019-01-02T10:08:41.330Z,2660
2019-01-02T10:09:41.062Z,2400
2019-01-02T10:10:41.298Z,1940
2019-01-02T10:11:41.276Z,1696
2019-01-02T10:12:41.256Z,2084
2019-01-02T10:13:41.233Z,2072
2019-01-02T10:14:40.969Z,2252
2019-01-02T10:15:41.207Z,1968
2019-01-02T10:16:41.186Z,2240
2019-01-02T10:17:41.166Z,3568
2019-01-02T10:18:41.147Z,2396
2019-01-02T10:19:41.129Z,2652
2019-01-02T10:20:46.308Z,3140
2019-01-02T10:21:40.840Z,2816
2019-01-02T10:22:41.067Z,2584
2019-01-02T10:23:41.057Z,2132
2019-01-02T10:24:41.035Z,2308
2019-01-02T10:25:40.757Z,2664
2019-01-02T10:26:40.988Z,3184
2019-01-02T10:27:40.779Z,4656
2019-01-02T10:28:41.002Z,4416
2019-01-02T10:29:40.935Z,3676
2019-01-02T10:30:40.913Z,2908
2019-01-02T10:31:40.892Z,2124
2019-01-02T10:32:40.872Z,1900
2019-01-02T10:33:40.857Z,2392
2019-01-02T10:34:40.833Z,3184
2019-01-02T10:35:40.819Z,3476
2019-01-02T10:36:40.797Z,3596
2019-01-02T10:37:40.531Z,3700
2019-01-02T10:38:40.770Z,3556
2019-01-02T10:39:40.749Z,2844
2019-01-02T10:40:40.723Z,2540
2019-01-02T10:41:40.699Z,2328
2019-01-02T10:42:40.697Z,2328
2019-01-02T10:43:40.771Z,2212
2019-01-02T10:44:40.644Z,2244
2019-01-02T10:45:40.625Z,1708
2019-01-02T10:46:40.604Z,1780
2019-01-02T10:47:40.626Z,2424
2019-01-02T10:48:40.569Z,2680
2019-01-02T10:49:40.555Z,2396
2019-01-02T10:50:40.291Z,2440
2019-01-02T10:51:40.519Z,2384
2019-01-02T10:52:40.493Z,2364
2019-01-02T10:53:40.480Z,2136
2019-01-02T10:54:40.211Z,2000
2019-01-02T10:55:40.440Z,1888
2019-01-02T10:56:40.415Z,1228
2019-01-02T10:57:40.156Z,612
2019-01-02T10:58:43.694Z,476
2019-01-02T10:59:40.109Z,388
2019-01-02T11:00:40.345Z,444
2019-01-02T11:01:40.071Z,684
2019-01-02T11:02:40.299Z,1000
2019-01-02T11:03:40.445Z,1204
2019-01-02T11:04:40.264Z,1376
2019-01-02T11:05:40.244Z,1508
2019-01-02T11:06:40.221Z,1580
2019-01-02T11:07:40.202Z,2204
2019-01-02T11:08:40.183Z,2588
2019-01-02T11:09:40.176Z,2912
2019-01-02T11:10:39.645Z,3500
2019-01-02T11:11:40.126Z,3648
2019-01-02T11:12:40.103Z,3464
2019-01-02T11:13:40.093Z,4380
2019-01-02T11:14:40.066Z,4720
2019-01-02T11:15:39.801Z,5112
2019-01-02T11:16:40.070Z,4700
2019-01-02T11:17:40.087Z,3448
2019-01-02T11:18:39.990Z,2956
2019-01-02T11:19:39.969Z,3312
2019-01-02T11:20:39.954Z,4144
2019-01-02T11:21:39.934Z,4584
2019-01-02T11:22:39.921Z,4688
2019-01-02T11:23:39.893Z,4344
2019-01-02T11:24:39.869Z,3820
2019-01-02T11:25:39.604Z,3364
2019-01-02T11:26:39.830Z,2504
2019-01-02T11:27:39.816Z,2216
2019-01-02T11:28:39.814Z,2936
2019-01-02T11:29:39.802Z,3536
2019-01-02T11:30:39.510Z,3312
2019-01-02T11:31:39.735Z,2256
2019-01-02T11:32:39.736Z,1580
2019-01-02T11:33:39.700Z,1232
2019-01-02T11:34:39.677Z,1092
2019-01-02T11:35:39.666Z,1192
2019-01-02T11:36:39.160Z,1452
2019-01-02T11:37:39.372Z,1592
2019-01-02T11:38:39.599Z,1972
2019-01-02T11:39:39.579Z,2576
2019-01-02T11:40:39.556Z,2968
2019-01-02T11:41:39.301Z,3140
2019-01-02T11:42:39.526Z,3164
2019-01-02T11:43:39.500Z,3180
2019-01-02T11:44:39.530Z,3308
2019-01-02T11:45:39.462Z,3304
2019-01-02T11:46:39.441Z,3212
2019-01-02T11:47:39.429Z,3224
2019-01-02T11:48:39.403Z,3240
2019-01-02T11:49:39.439Z,3056
2019-01-02T11:50:39.402Z,2980
2019-01-02T11:51:39.385Z,3272
2019-01-02T11:52:39.359Z,3324
2019-01-02T11:53:39.397Z,3540
2019-01-02T11:54:39.379Z,3648
2019-01-02T11:55:39.125Z,3916
2019-01-02T11:56:39.410Z,4204
2019-01-02T11:57:39.134Z,4364
2019-01-02T11:58:39.393Z,4300
2019-01-02T11:59:39.404Z,3516
2019-01-02T12:00:39.386Z,3116
2019-01-02T12:01:39.119Z,2824
2019-01-02T12:02:41.479Z,2648
2019-01-02T12:03:39.385Z,2864
2019-01-02T12:04:39.360Z,2532
2019-01-02T12:05:39.414Z,2012
2019-01-02T12:06:39.385Z,1960
2019-01-02T12:07:39.886Z,2128
2019-01-02T12:08:39.164Z,2644
2019-01-02T12:09:39.136Z,2596
2019-01-02T12:10:39.370Z,2744
2019-01-02T12:11:38.947Z,2792
2019-01-02T12:12:39.396Z,2760
2019-01-02T12:13:39.368Z,2888
2019-01-02T12:14:39.194Z,3056
2019-01-02T12:15:39.391Z,3008
2019-01-02T12:16:39.123Z,2728
2019-01-02T12:17:38.852Z,2632
2019-01-02T12:18:39.332Z,2696
2019-01-02T12:19:38.869Z,2752
2019-01-02T12:20:38.806Z,2640
2019-01-02T12:21:39.284Z,2480
2019-01-02T12:22:39.263Z,2684
2019-01-02T12:23:39.240Z,2676
2019-01-02T12:24:39.269Z,2564
2019-01-02T12:25:39.208Z,2424
2019-01-02T12:26:39.182Z,2268
2019-01-02T12:27:39.172Z,2248
2019-01-02T12:28:39.143Z,2340
2019-01-02T12:29:39.123Z,2152
2019-01-02T12:30:39.106Z,1836
2019-01-02T12:31:39.086Z,1672
2019-01-02T12:32:39.065Z,1576
2019-01-02T12:33:38.805Z,1496
2019-01-02T12:34:39.033Z,1392
2019-01-02T12:35:39.004Z,1272
2019-01-02T12:36:38.984Z,1360
2019-01-02T12:37:38.968Z,1544
2019-01-02T12:38:38.954Z,1600
2019-01-02T12:39:38.932Z,1688
2019-01-02T12:40:38.910Z,1568
2019-01-02T12:41:38.896Z,1504
2019-01-02T12:42:38.631Z,1628
2019-01-02T12:43:38.849Z,1660
2019-01-02T12:44:38.586Z,1752
2019-01-02T12:45:38.823Z,1652
2019-01-02T12:46:38.789Z,1600
2019-01-02T12:47:38.773Z,1944
2019-01-02T12:48:38.758Z,1992
2019-01-02T12:49:38.734Z,1908
2019-01-02T12:50:38.721Z,1900
2019-01-02T12:51:38.703Z,2212
2019-01-02T12:52:38.686Z,2308
2019-01-02T12:53:43.624Z,2384
2019-01-02T12:54:38.638Z,2484
2019-01-02T12:55:38.630Z,2444
2019-01-02T12:56:38.609Z,2464
2019-01-02T12:57:38.095Z,2572
2019-01-02T12:58:38.315Z,2424
2019-01-02T12:59:38.295Z,2608
2019-01-02T13:00:38.520Z,2732
2019-01-02T13:01:38.504Z,2560
2019-01-02T13:02:38.237Z,2340
2019-01-02T13:03:38.216Z,2196
2019-01-02T13:04:38.438Z,1952
2019-01-02T13:05:38.628Z,1664
2019-01-02T13:06:38.408Z,1276
2019-01-02T13:07:44.386Z,1036
2019-01-02T13:08:38.365Z,1336
2019-01-02T13:09:38.349Z,1364
2019-01-02T13:10:38.320Z,1820
2019-01-02T13:11:38.305Z,2184
2019-01-02T13:12:38.287Z,2464
2019-01-02T13:13:38.266Z,2808
2019-01-02T13:14:38.301Z,3128
2019-01-02T13:15:38.228Z,3528
2019-01-02T13:16:37.964Z,3192
2019-01-02T13:17:38.194Z,2996
2019-01-02T13:18:37.924Z,2992
2019-01-02T13:19:38.159Z,2912
2019-01-02T13:20:38.132Z,2732
2019-01-02T13:21:38.113Z,2568
2019-01-02T13:22:38.101Z,2484
2019-01-02T13:23:38.087Z,2232
2019-01-02T13:24:38.059Z,2188
2019-01-02T13:25:38.039Z,2212
2019-01-02T13:26:38.016Z,2216
2019-01-02T13:27:37.997Z,2284
2019-01-02T13:28:37.978Z,2212
2019-01-02T13:29:37.965Z,2248
2019-01-02T13:30:37.943Z,2172
2019-01-02T13:31:37.926Z,2152
2019-01-02T13:32:37.910Z,2076
2019-01-02T13:33:37.888Z,1924
2019-01-02T13:34:37.609Z,2192
2019-01-02T13:35:37.886Z,2192
2019-01-02T13:36:37.827Z,2224
2019-01-02T13:37:37.806Z,2116
2019-01-02T13:38:37.783Z,1980
2019-01-02T13:39:37.772Z,2048
2019-01-02T13:40:37.800Z,2112
2019-01-02T13:41:37.728Z,2144
2019-01-02T13:42:37.708Z,2120
2019-01-02T13:43:37.690Z,2060
2019-01-02T13:44:37.663Z,2008
2019-01-02T13:45:37.659Z,1948
2019-01-02T13:46:37.626Z,1856
2019-01-02T13:47:37.610Z,1796
2019-01-02T13:48:37.595Z,1768
2019-01-02T13:49:37.572Z,1560
2019-01-02T13:50:37.554Z,1400
2019-01-02T13:51:37.540Z,1220
2019-01-02T13:52:37.508Z,1276
2019-01-02T13:53:37.251Z,1344
2019-01-02T13:54:37.474Z,1372
2019-01-02T13:55:37.512Z,1460
2019-01-02T13:56:37.441Z,1376
2019-01-02T13:57:37.421Z,1328
2019-01-02T13:58:37.401Z,1304
2019-01-02T13:59:37.134Z,1376
2019-01-02T14:00:37.411Z,1496
2019-01-02T14:01:37.341Z,1268
2019-01-02T14:02:37.320Z,1132
2019-01-02T14:03:37.300Z,896
2019-01-02T14:04:37.279Z,648